Time;durP1;ratioP1;P1;durP2;ratioP2;P2;SDS_P1;SDS_P2;PMS_P1;PMS_P2;Temp;Humidity;BMP_temperature;BMP_pressure;BME280_temperature;BME280_humidity;BME280_pressure;Samples;Min_cycle;Max_cycle;Signal;HPM_P1;HPM_P2
2021/09/05 00:00:39;;;;;;;40.70;23.67;;;11.20;99.90;;;;;;4183029;28;20082;-74
2021/09/05 00:02:39;;;;;;;52.90;26.23;;;11.10;99.90;;;;;;4180317;28;20094;-74
2021/09/05 00:04:40;;;;;;;52.28;25.23;;;11.10;99.90;;;;;;4182570;28;20500;-74
2021/09/05 00:06:40;;;;;;;48.25;24.52;;;11.10;99.90;;;;;;4181668;28;20087;-74
2021/09/05 00:08:42;;;;;;;47.58;24.73;;;11.10;99.90;;;;;;4183396;28;20028;-74
2021/09/05 00:10:43;;;;;;;42.75;22.92;;;11.10;99.90;;;;;;4181994;28;20045;-74
2021/09/05 00:12:43;;;;;;;48.63;24.55;;;11.00;99.90;;;;;;4182833;28;20039;-74
2021/09/05 00:14:44;;;;;;;48.28;25.02;;;11.00;99.90;;;;;;4179896;28;20054;-72
2021/09/05 00:16:45;;;;;;;49.15;25.30;;;11.10;99.90;;;;;;4183923;28;20399;-73
2021/09/05 00:18:46;;;;;;;49.33;24.10;;;11.10;99.90;;;;;;4181171;28;20136;-73
2021/09/05 00:20:47;;;;;;;51.92;24.20;;;11.30;99.90;;;;;;4180037;28;20032;-74
2021/09/05 00:22:48;;;;;;;57.00;25.42;;;11.40;99.90;;;;;;4181949;28;20040;-74
2021/09/05 00:24:49;;;;;;;52.58;25.33;;;11.40;99.90;;;;;;4182935;28;20526;-73
2021/09/05 00:26:49;;;;;;;47.15;26.15;;;11.30;99.90;;;;;;4179780;28;20082;-73
2021/09/05 00:28:50;;;;;;;45.42;24.38;;;11.30;99.90;;;;;;4181536;28;20049;-74
2021/09/05 00:30:51;;;;;;;49.63;24.40;;;11.30;99.90;;;;;;4180442;28;20644;-74
2021/09/05 00:32:51;;;;;;;46.97;24.48;;;11.20;99.90;;;;;;4183163;28;20044;-73
2021/09/05 00:34:52;;;;;;;43.40;22.00;;;11.20;99.90;;;;;;4181683;28;20350;-73
2021/09/05 00:36:52;;;;;;;45.85;24.08;;;11.10;99.90;;;;;;4183029;28;20040;-75
2021/09/05 00:38:53;;;;;;;49.30;23.00;;;11.00;99.90;;;;;;4181001;28;20408;-73
2021/09/05 00:40:53;;;;;;;47.35;23.67;;;11.00;99.90;;;;;;4181687;28;20030;-74
2021/09/05 00:42:54;;;;;;;46.13;21.30;;;10.90;99.90;;;;;;4180546;28;20388;-74
2021/09/05 00:44:55;;;;;;;51.00;22.40;;;10.90;99.90;;;;;;4192432;28;20052;-74
2021/09/05 00:46:55;;;;;;;48.30;21.75;;;10.90;99.90;;;;;;4195417;28;20044;-73
2021/09/05 00:48:56;;;;;;;45.83;22.65;;;10.80;99.90;;;;;;4213199;28;20040;-74
2021/09/05 00:50:57;;;;;;;45.88;24.40;;;10.80;99.90;;;;;;4213585;28;20119;-73
2021/09/05 00:52:57;;;;;;;39.80;22.83;;;10.70;99.90;;;;;;4212154;28;20070;-72
2021/09/05 00:54:58;;;;;;;48.45;22.58;;;10.70;99.90;;;;;;4211179;28;20039;-74
2021/09/05 00:56:59;;;;;;;45.70;22.58;;;10.70;99.90;;;;;;4193497;28;20044;-74
2021/09/05 00:59:06;;;;;;;48.90;23.58;;;10.70;99.90;;;;;;4213446;28;20035;-74
2021/09/05 01:01:07;;;;;;;48.10;22.55;;;10.70;99.90;;;;;;4211659;28;20036;-74
2021/09/05 01:03:08;;;;;;;51.85;24.10;;;10.70;99.90;;;;;;4213629;28;20052;-74
2021/09/05 01:05:09;;;;;;;48.35;23.60;;;10.70;99.90;;;;;;4209942;28;20075;-73
2021/09/05 01:07:12;;;;;;;50.30;23.17;;;10.80;99.90;;;;;;4212468;28;20043;-74
2021/09/05 01:09:12;;;;;;;52.13;26.75;;;10.80;99.90;;;;;;4191329;28;20574;-73
2021/09/05 01:11:13;;;;;;;51.72;25.02;;;10.70;99.90;;;;;;4211496;28;20028;-74
2021/09/05 01:13:14;;;;;;;54.13;23.13;;;10.80;99.90;;;;;;4209587;28;20048;-74
2021/09/05 01:15:14;;;;;;;59.85;25.80;;;10.80;99.90;;;;;;4190815;28;20128;-73
2021/09/05 01:17:15;;;;;;;47.40;22.98;;;10.80;99.90;;;;;;4209244;28;20605;-73
2021/09/05 01:19:18;;;;;;;49.53;24.45;;;10.80;99.90;;;;;;4208930;28;20028;-74
2021/09/05 01:21:19;;;;;;;51.97;24.38;;;10.80;99.90;;;;;;4207519;28;20047;-73
2021/09/05 01:23:19;;;;;;;45.60;23.20;;;10.70;99.90;;;;;;4201667;28;20027;-73
2021/09/05 01:25:20;;;;;;;53.63;23.23;;;10.70;99.90;;;;;;4212053;28;20036;-73
2021/09/05 01:27:21;;;;;;;52.22;23.90;;;10.70;99.90;;;;;;4213413;28;20035;-74
2021/09/05 01:29:21;;;;;;;52.60;25.00;;;10.60;99.90;;;;;;4211283;28;20036;-73
2021/09/05 01:31:23;;;;;;;59.05;24.80;;;10.60;99.90;;;;;;4195788;28;20411;-73
2021/09/05 01:33:23;;;;;;;53.85;25.13;;;10.60;99.90;;;;;;4212127;28;20028;-73
2021/09/05 01:35:24;;;;;;;55.33;24.63;;;10.60;99.90;;;;;;4203291;28;20081;-74
2021/09/05 01:37:24;;;;;;;46.25;22.73;;;10.60;99.90;;;;;;4212255;28;20471;-74
2021/09/05 01:39:25;;;;;;;56.90;23.67;;;10.50;99.90;;;;;;4211544;28;20392;-74
2021/09/05 01:41:26;;;;;;;57.10;27.23;;;10.50;99.90;;;;;;4211229;28;20042;-74
2021/09/05 01:43:26;;;;;;;60.80;26.65;;;10.40;99.90;;;;;;4195489;28;20442;-74
2021/09/05 01:45:27;;;;;;;60.38;25.60;;;10.50;99.90;;;;;;4210004;28;20503;-74
2021/09/05 01:47:29;;;;;;;62.63;27.02;;;10.50;99.90;;;;;;4208576;28;20056;-74
2021/09/05 01:49:29;;;;;;;59.70;27.20;;;10.50;99.90;;;;;;4210097;28;20036;-75
2021/09/05 01:51:30;;;;;;;54.05;23.85;;;10.50;99.90;;;;;;4186947;28;20029;-74
2021/09/05 01:53:31;;;;;;;58.00;24.17;;;10.50;99.90;;;;;;4211863;28;20473;-74
2021/09/05 01:55:32;;;;;;;61.97;25.50;;;10.50;99.90;;;;;;4188233;28;20029;-74
2021/09/05 01:57:32;;;;;;;55.22;26.65;;;10.50;99.90;;;;;;4210353;28;20042;-74
2021/09/05 01:59:33;;;;;;;59.13;27.33;;;10.50;99.90;;;;;;4211995;28;20475;-74
2021/09/05 02:01:34;;;;;;;59.22;26.33;;;10.50;99.90;;;;;;4193651;28;20107;-74
2021/09/05 02:03:34;;;;;;;65.00;25.27;;;10.50;99.90;;;;;;4203661;28;20125;-74
2021/09/05 02:05:35;;;;;;;65.38;26.45;;;10.50;99.90;;;;;;4196114;28;20067;-74
2021/09/05 02:07:36;;;;;;;61.45;27.65;;;10.50;99.90;;;;;;4187048;28;20032;-73
2021/09/05 02:09:36;;;;;;;59.47;28.52;;;10.50;99.90;;;;;;4193096;28;20456;-74
2021/09/05 02:11:37;;;;;;;57.17;26.08;;;10.50;99.90;;;;;;4203923;28;20341;-73
2021/09/05 02:13:37;;;;;;;56.85;24.95;;;10.50;99.90;;;;;;4210014;28;20024;-74
2021/09/05 02:15:38;;;;;;;61.67;26.58;;;10.40;99.90;;;;;;4193764;28;20120;-74
2021/09/05 02:17:39;;;;;;;64.50;26.73;;;10.40;99.90;;;;;;4210855;28;20028;-74
2021/09/05 02:19:40;;;;;;;54.72;25.77;;;10.40;99.90;;;;;;4210989;28;20028;-74
2021/09/05 02:21:40;;;;;;;59.67;25.65;;;10.40;99.90;;;;;;4211888;28;20032;-75
2021/09/05 02:23:41;;;;;;;60.60;26.00;;;10.40;99.90;;;;;;4203871;28;20032;-74
2021/09/05 02:25:41;;;;;;;63.88;26.02;;;10.40;99.90;;;;;;4209796;28;20036;-74
2021/09/05 02:27:43;;;;;;;55.22;26.15;;;10.40;99.90;;;;;;4211614;28;20479;-74
2021/09/05 02:29:43;;;;;;;60.30;26.33;;;10.30;99.90;;;;;;4208807;28;20036;-74
2021/09/05 02:31:44;;;;;;;55.83;24.42;;;10.30;99.90;;;;;;4203365;28;20392;-74
2021/09/05 02:33:44;;;;;;;60.53;25.00;;;10.20;99.90;;;;;;4211656;28;20028;-73
2021/09/05 02:35:45;;;;;;;55.13;24.23;;;10.20;99.90;;;;;;4204075;28;20081;-73
2021/09/05 02:37:45;;;;;;;57.72;26.27;;;10.20;99.90;;;;;;4193804;28;20025;-73
2021/09/05 02:39:46;;;;;;;55.85;24.90;;;10.10;99.90;;;;;;4204551;28;20063;-74
2021/09/05 02:41:47;;;;;;;50.20;23.60;;;10.10;99.90;;;;;;4210046;28;20535;-73
2021/09/05 02:43:47;;;;;;;63.03;27.35;;;10.00;99.90;;;;;;4201947;28;20036;-74
2021/09/05 02:45:48;;;;;;;58.83;24.13;;;10.00;99.90;;;;;;4206838;28;20419;-74
2021/09/05 02:47:48;;;;;;;50.40;23.20;;;10.00;99.90;;;;;;4201813;28;20048;-73
2021/09/05 02:49:49;;;;;;;60.55;25.50;;;10.00;99.90;;;;;;4192241;28;20025;-73
2021/09/05 02:51:49;;;;;;;59.03;24.85;;;9.90;99.90;;;;;;4192363;28;20060;-74
2021/09/05 02:53:50;;;;;;;60.20;26.15;;;9.90;99.90;;;;;;4209043;28;20052;-73
2021/09/05 02:55:50;;;;;;;60.15;25.17;;;9.90;99.90;;;;;;4186968;28;20128;-74
2021/09/05 02:57:51;;;;;;;61.80;25.50;;;9.80;99.90;;;;;;4205889;28;20031;-74
2021/09/05 02:59:52;;;;;;;68.90;25.50;;;9.80;99.90;;;;;;4202783;28;20072;-73
2021/09/05 03:01:52;;;;;;;53.10;26.45;;;9.70;99.90;;;;;;4192299;28;20037;-73
2021/09/05 03:03:53;;;;;;;64.63;25.60;;;9.70;99.90;;;;;;4185951;28;20488;-74
2021/09/05 03:05:53;;;;;;;63.97;27.27;;;9.60;99.90;;;;;;4211707;28;20123;-74
2021/09/05 03:07:54;;;;;;;61.40;26.42;;;9.60;99.90;;;;;;4202982;28;20036;-72
2021/09/05 03:09:54;;;;;;;59.78;25.33;;;9.70;99.90;;;;;;4210179;28;20575;-72
2021/09/05 03:11:55;;;;;;;59.78;26.08;;;9.70;99.90;;;;;;4211064;28;20070;-72
2021/09/05 03:13:57;;;;;;;67.32;25.08;;;9.70;99.90;;;;;;4210614;28;20034;-74
2021/09/05 03:15:57;;;;;;;58.63;26.55;;;9.70;99.90;;;;;;4193942;28;20032;-73
2021/09/05 03:17:58;;;;;;;70.22;26.95;;;9.80;99.90;;;;;;4194222;28;20028;-73
2021/09/05 03:19:59;;;;;;;63.53;28.15;;;9.80;99.90;;;;;;4194992;28;20047;-73
2021/09/05 03:21:59;;;;;;;62.42;28.25;;;9.70;99.90;;;;;;4212204;28;20445;-73
2021/09/05 03:24:00;;;;;;;55.55;25.73;;;9.70;99.90;;;;;;4213591;28;20093;-73
2021/09/05 03:26:01;;;;;;;63.28;26.60;;;9.70;99.90;;;;;;4213008;28;20560;-73
2021/09/05 03:28:01;;;;;;;59.80;26.08;;;9.70;99.90;;;;;;4214228;28;20044;-73
2021/09/05 03:30:04;;;;;;;66.28;27.08;;;9.70;99.90;;;;;;4194598;28;20032;-73
2021/09/05 03:32:05;;;;;;;66.28;28.38;;;9.80;99.90;;;;;;4206139;28;20076;-73
2021/09/05 03:34:06;;;;;;;62.22;25.98;;;9.70;99.90;;;;;;4194858;28;20029;-72
2021/09/05 03:36:07;;;;;;;63.70;25.23;;;9.70;99.90;;;;;;4206158;28;20040;-73
2021/09/05 03:38:07;;;;;;;59.60;25.30;;;9.70;99.90;;;;;;4212970;28;20479;-73
2021/09/05 03:40:09;;;;;;;51.95;26.13;;;9.60;99.90;;;;;;4207328;28;20051;-72
2021/09/05 03:42:09;;;;;;;66.80;28.10;;;9.60;99.90;;;;;;4212924;28;20028;-73
2021/09/05 03:44:10;;;;;;;70.10;27.60;;;9.60;99.90;;;;;;4196970;28;20468;-73
2021/09/05 03:46:10;;;;;;;54.33;23.67;;;9.60;99.90;;;;;;4213169;28;20060;-73
2021/09/05 03:48:11;;;;;;;61.83;24.92;;;9.60;99.90;;;;;;4205803;28;20078;-73
2021/09/05 03:50:12;;;;;;;68.25;27.85;;;9.50;99.90;;;;;;4214123;28;20032;-73
2021/09/05 03:52:13;;;;;;;67.85;26.67;;;9.50;99.90;;;;;;4206070;28;20464;-73
2021/09/05 03:54:14;;;;;;;60.95;26.58;;;9.50;99.90;;;;;;4213598;28;20031;-73
2021/09/05 03:56:14;;;;;;;77.57;29.33;;;9.40;99.90;;;;;;4205583;28;20503;-73
2021/09/05 03:58:15;;;;;;;72.75;27.52;;;9.40;99.90;;;;;;4213110;28;20043;-73
2021/09/05 04:00:16;;;;;;;69.53;27.85;;;9.40;99.90;;;;;;4215178;28;20471;-74
2021/09/05 04:02:17;;;;;;;65.20;24.90;;;9.40;99.90;;;;;;4213494;28;20042;-74
2021/09/05 04:04:17;;;;;;;68.47;28.40;;;9.40;99.90;;;;;;4204497;28;20036;-74
2021/09/05 04:06:19;;;;;;;63.00;24.95;;;9.40;99.90;;;;;;4213782;28;20059;-74
2021/09/05 04:08:29;;;;;;;70.18;26.42;;;9.40;99.90;;;;;;4205121;28;20037;-74
2021/09/05 04:10:31;;;;;;;60.65;25.38;;;9.40;99.90;;;;;;4196708;28;20102;-74
2021/09/05 04:12:32;;;;;;;72.25;26.80;;;9.30;99.90;;;;;;4204974;28;20038;-74
2021/09/05 04:14:33;;;;;;;63.75;27.55;;;9.30;99.90;;;;;;4212745;28;20055;-74
2021/09/05 04:16:34;;;;;;;61.85;25.02;;;9.20;99.90;;;;;;4196675;28;20040;-74
2021/09/05 04:18:35;;;;;;;69.45;27.10;;;9.20;99.90;;;;;;4211588;28;20072;-73
2021/09/05 04:20:35;;;;;;;72.03;29.15;;;9.20;99.90;;;;;;4214353;28;20375;-74
2021/09/05 04:22:36;;;;;;;68.03;27.38;;;9.20;99.90;;;;;;4213469;28;20504;-73
2021/09/05 04:24:36;;;;;;;65.75;26.88;;;9.20;99.90;;;;;;4212321;28;20032;-74
2021/09/05 04:26:37;;;;;;;72.03;26.98;;;9.30;99.90;;;;;;4212426;28;20087;-73
2021/09/05 04:28:37;;;;;;;73.10;28.58;;;9.30;99.90;;;;;;4208045;28;20047;-73
2021/09/05 04:30:38;;;;;;;63.67;26.88;;;9.30;99.90;;;;;;4211394;28;20491;-73
2021/09/05 04:32:39;;;;;;;71.00;28.98;;;9.20;99.90;;;;;;4208976;28;20123;-73
2021/09/05 04:34:40;;;;;;;68.50;27.77;;;9.20;99.90;;;;;;4211040;28;20100;-73
2021/09/05 04:36:40;;;;;;;76.85;29.02;;;9.30;99.90;;;;;;4213654;28;20040;-74
2021/09/05 04:38:42;;;;;;;73.40;28.38;;;9.30;99.90;;;;;;4211912;28;20130;-74
2021/09/05 04:40:43;;;;;;;73.45;28.17;;;9.20;99.90;;;;;;4213656;28;20177;-74
2021/09/05 04:42:43;;;;;;;71.55;28.88;;;9.30;99.90;;;;;;4196154;28;20455;-74
2021/09/05 04:44:44;;;;;;;77.97;26.98;;;9.20;99.90;;;;;;4210855;28;20036;-74
2021/09/05 04:46:44;;;;;;;75.45;29.00;;;9.30;99.90;;;;;;4211394;28;20055;-74
2021/09/05 04:48:45;;;;;;;69.40;28.00;;;9.20;99.90;;;;;;4210591;28;20089;-74
2021/09/05 04:50:46;;;;;;;70.60;30.20;;;9.20;99.90;;;;;;4193900;28;20036;-74
2021/09/05 04:52:47;;;;;;;67.82;27.35;;;9.20;99.90;;;;;;4195418;28;20080;-74
2021/09/05 04:54:47;;;;;;;72.00;27.73;;;9.20;99.90;;;;;;4193064;28;20028;-72
2021/09/05 04:56:48;;;;;;;65.47;29.33;;;9.10;99.90;;;;;;4207874;28;20403;-73
2021/09/05 04:58:49;;;;;;;74.50;26.70;;;9.20;99.90;;;;;;4212420;28;20054;-73
2021/09/05 05:00:49;;;;;;;71.13;27.13;;;9.20;99.90;;;;;;4211502;28;20052;-73
2021/09/05 05:02:50;;;;;;;82.00;31.38;;;9.20;99.90;;;;;;4210124;28;20024;-74
2021/09/05 05:04:50;;;;;;;66.28;26.48;;;9.20;99.90;;;;;;4212140;28;20024;-74
2021/09/05 05:06:51;;;;;;;74.07;28.58;;;9.10;99.90;;;;;;4211031;28;20870;-74
2021/09/05 05:08:51;;;;;;;73.97;28.75;;;9.20;99.90;;;;;;4213537;28;20028;-74
2021/09/05 05:10:53;;;;;;;69.82;29.75;;;9.20;99.90;;;;;;4211374;28;20479;-73
2021/09/05 05:12:53;;;;;;;74.45;29.00;;;9.20;99.90;;;;;;4212165;28;20367;-73
2021/09/05 05:14:54;;;;;;;79.25;30.23;;;9.30;99.90;;;;;;4211642;28;20052;-73
2021/09/05 05:16:54;;;;;;;69.95;29.50;;;9.30;99.90;;;;;;4211365;28;20076;-73
2021/09/05 05:18:56;;;;;;;79.60;29.45;;;9.30;99.90;;;;;;4213280;28;20036;-73
2021/09/05 05:20:56;;;;;;;78.60;32.10;;;9.40;99.90;;;;;;4195057;28;20461;-72
2021/09/05 05:22:57;;;;;;;81.10;30.42;;;9.40;99.90;;;;;;4206067;28;20031;-73
2021/09/05 05:24:57;;;;;;;82.93;33.17;;;9.50;99.90;;;;;;4193708;28;20500;-74
2021/09/05 05:26:58;;;;;;;81.38;32.90;;;9.60;99.90;;;;;;4209244;28;20035;-74
2021/09/05 05:28:59;;;;;;;80.35;33.13;;;9.70;99.90;;;;;;4194445;28;20028;-73
2021/09/05 05:30:59;;;;;;;82.07;31.17;;;9.70;99.90;;;;;;4194242;28;20538;-74
2021/09/05 05:33:01;;;;;;;72.70;30.30;;;9.80;99.90;;;;;;4191449;28;20055;-74
2021/09/05 05:35:02;;;;;;;80.72;31.23;;;9.80;99.90;;;;;;4211229;28;20062;-74
2021/09/05 05:37:03;;;;;;;72.30;32.05;;;9.90;99.90;;;;;;4212113;28;20107;-74
2021/09/05 05:39:04;;;;;;;79.18;32.83;;;9.90;99.90;;;;;;4211199;28;20055;-74
2021/09/05 05:41:04;;;;;;;72.10;32.63;;;9.90;99.90;;;;;;4210397;28;20017;-74
2021/09/05 05:43:05;;;;;;;84.18;32.17;;;10.00;99.90;;;;;;4188037;28;20033;-74
2021/09/05 05:45:06;;;;;;;74.88;31.98;;;10.10;99.90;;;;;;4192319;28;20059;-74
2021/09/05 05:47:06;;;;;;;80.47;31.63;;;10.10;99.90;;;;;;4191271;28;20055;-74
2021/09/05 05:49:07;;;;;;;69.93;33.35;;;10.10;99.90;;;;;;4191610;28;20537;-74
2021/09/05 05:51:08;;;;;;;69.10;33.15;;;10.10;99.90;;;;;;4195462;28;20170;-73
2021/09/05 05:53:09;;;;;;;77.70;32.45;;;10.20;99.90;;;;;;4192735;28;20385;-73
2021/09/05 05:55:10;;;;;;;78.78;33.58;;;10.20;99.90;;;;;;4193184;28;20534;-74
2021/09/05 05:57:10;;;;;;;73.55;31.13;;;10.20;99.90;;;;;;4192995;28;20040;-74
2021/09/05 05:59:11;;;;;;;76.72;31.77;;;10.30;99.90;;;;;;4193756;28;20029;-74
2021/09/05 06:01:12;;;;;;;76.38;31.10;;;10.30;99.90;;;;;;4195516;28;20028;-75
2021/09/05 06:03:12;;;;;;;75.97;33.00;;;10.40;99.90;;;;;;4190239;28;20112;-74
2021/09/05 06:05:13;;;;;;;68.68;33.25;;;10.40;99.90;;;;;;4192686;28;20043;-74
2021/09/05 06:07:14;;;;;;;76.60;34.50;;;10.50;99.90;;;;;;4194800;28;20064;-74
2021/09/05 06:09:15;;;;;;;70.00;31.65;;;10.50;99.90;;;;;;4191573;28;20029;-74
2021/09/05 06:11:16;;;;;;;71.70;33.47;;;10.60;99.90;;;;;;4194420;28;20452;-74
2021/09/05 06:13:16;;;;;;;66.93;30.67;;;10.60;99.90;;;;;;4190622;28;20024;-74
2021/09/05 06:15:17;;;;;;;74.03;31.20;;;10.70;99.90;;;;;;4191598;28;20118;-74
2021/09/05 06:17:18;;;;;;;72.50;32.28;;;10.70;99.90;;;;;;4192512;28;20024;-74
2021/09/05 06:19:21;;;;;;;76.00;31.52;;;10.80;99.90;;;;;;4188628;28;20025;-74
2021/09/05 06:21:22;;;;;;;78.57;33.05;;;10.80;99.90;;;;;;4199515;28;20123;-74
2021/09/05 06:23:22;;;;;;;73.68;32.58;;;10.90;99.90;;;;;;4188308;28;20045;-73
2021/09/05 06:25:23;;;;;;;72.15;33.85;;;11.00;99.90;;;;;;4187750;28;20049;-74
2021/09/05 06:27:24;;;;;;;70.80;32.13;;;11.00;99.90;;;;;;4190991;28;20027;-72
2021/09/05 06:29:24;;;;;;;69.03;34.40;;;11.10;99.90;;;;;;4185833;28;20032;-73
2021/09/05 06:31:25;;;;;;;65.15;30.27;;;11.20;99.90;;;;;;4186423;28;20032;-73
2021/09/05 06:33:25;;;;;;;72.65;32.00;;;11.20;99.90;;;;;;4188581;28;20041;-73
2021/09/05 06:35:26;;;;;;;67.35;30.95;;;11.30;99.90;;;;;;4187144;28;20487;-73
2021/09/05 06:37:27;;;;;;;62.17;30.95;;;11.40;99.90;;;;;;4201194;28;20029;-73
2021/09/05 06:39:27;;;;;;;65.20;28.17;;;11.40;99.90;;;;;;4186531;28;20082;-72
2021/09/05 06:41:29;;;;;;;66.70;30.58;;;11.50;99.90;;;;;;4187049;28;20071;-74
2021/09/05 06:43:30;;;;;;;65.32;29.65;;;11.60;99.90;;;;;;4186000;28;20025;-73
2021/09/05 06:45:31;;;;;;;64.60;30.30;;;11.60;99.90;;;;;;4200831;28;20055;-73
2021/09/05 06:47:31;;;;;;;61.70;29.65;;;11.70;99.90;;;;;;4190665;28;20056;-73
2021/09/05 06:49:32;;;;;;;61.70;28.98;;;11.70;99.90;;;;;;4208573;28;20024;-73
2021/09/05 06:51:33;;;;;;;62.13;30.38;;;11.80;99.90;;;;;;4207342;28;20020;-73
2021/09/05 06:53:34;;;;;;;65.65;29.80;;;11.80;99.90;;;;;;4207485;28;20028;-73
2021/09/05 06:55:34;;;;;;;58.90;27.77;;;11.90;99.90;;;;;;4202488;28;20048;-73
2021/09/05 06:57:35;;;;;;;61.03;28.80;;;12.00;99.90;;;;;;4191612;28;20534;-73
2021/09/05 06:59:36;;;;;;;56.47;29.50;;;12.00;99.90;;;;;;4207161;28;20063;-74
2021/09/05 07:01:36;;;;;;;50.83;28.15;;;12.10;99.90;;;;;;4185796;28;20116;-74
2021/09/05 07:03:37;;;;;;;55.50;28.77;;;12.20;99.90;;;;;;4207772;28;20143;-74
2021/09/05 07:05:38;;;;;;;58.38;27.55;;;12.30;99.90;;;;;;4210534;28;20032;-74
2021/09/05 07:07:39;;;;;;;54.33;28.45;;;12.40;99.90;;;;;;4194481;28;20098;-74
2021/09/05 07:09:40;;;;;;;53.15;27.38;;;12.50;99.90;;;;;;4210003;28;20040;-74
2021/09/05 07:11:41;;;;;;;54.75;26.83;;;12.60;99.90;;;;;;4189282;28;20472;-74
2021/09/05 07:13:42;;;;;;;49.78;25.27;;;12.70;99.90;;;;;;4190937;28;20039;-73
2021/09/05 07:15:42;;;;;;;45.30;25.95;;;12.80;99.90;;;;;;4208837;28;20039;-73
2021/09/05 07:17:43;;;;;;;49.88;26.08;;;12.80;99.90;;;;;;4208829;28;20408;-74
2021/09/05 07:19:44;;;;;;;47.15;27.00;;;12.90;99.90;;;;;;4213940;28;20047;-74
2021/09/05 07:21:44;;;;;;;50.00;26.55;;;13.00;99.90;;;;;;4209279;28;20034;-74
2021/09/05 07:23:45;;;;;;;39.78;24.63;;;13.10;99.90;;;;;;4208471;28;20028;-73
2021/09/05 07:25:46;;;;;;;45.40;24.77;;;13.20;99.90;;;;;;4209189;28;20460;-73
2021/09/05 07:27:47;;;;;;;46.55;24.50;;;13.30;99.90;;;;;;4190858;28;20056;-73
2021/09/05 07:29:47;;;;;;;41.25;26.00;;;13.30;99.90;;;;;;4207343;28;20377;-72
2021/09/05 07:31:48;;;;;;;40.20;24.65;;;13.40;99.90;;;;;;4192474;28;20541;-73
2021/09/05 07:33:49;;;;;;;36.42;20.98;;;13.50;99.90;;;;;;4208343;28;20028;-73
2021/09/05 07:35:49;;;;;;;34.13;21.85;;;13.60;99.90;;;;;;4193746;28;20051;-73
2021/09/05 07:37:50;;;;;;;39.63;22.63;;;13.70;99.90;;;;;;4191123;28;20029;-73
2021/09/05 07:39:51;;;;;;;37.80;20.83;;;13.80;99.90;;;;;;4188594;28;20068;-73
2021/09/05 07:41:51;;;;;;;37.75;20.55;;;13.90;99.90;;;;;;4193675;28;20553;-74
2021/09/05 07:43:52;;;;;;;34.47;21.92;;;14.00;99.90;;;;;;4191524;28;20119;-73
2021/09/05 07:45:52;;;;;;;27.50;18.77;;;14.10;99.90;;;;;;4208786;28;20563;-72
2021/09/05 07:47:53;;;;;;;31.55;19.60;;;14.10;99.90;;;;;;4210426;28;20379;-73
2021/09/05 07:49:53;;;;;;;28.05;18.38;;;14.20;99.90;;;;;;4207417;28;20032;-73
2021/09/05 07:51:54;;;;;;;30.45;18.63;;;14.20;99.90;;;;;;4189461;28;20111;-71
2021/09/05 07:53:55;;;;;;;29.15;17.83;;;14.40;99.90;;;;;;4207534;28;20078;-72
2021/09/05 07:55:56;;;;;;;27.80;18.55;;;14.50;99.90;;;;;;4209043;28;20039;-74
2021/09/05 07:57:56;;;;;;;28.02;17.60;;;14.60;99.90;;;;;;4209154;28;20060;-71
2021/09/05 07:59:57;;;;;;;25.92;18.33;;;14.60;99.90;;;;;;4208441;28;20375;-74
2021/09/05 08:01:58;;;;;;;24.55;17.30;;;14.70;99.90;;;;;;4205860;28;20425;-74
2021/09/05 08:03:58;;;;;;;27.58;17.60;;;14.90;99.90;;;;;;4209738;28;20028;-74
2021/09/05 08:05:59;;;;;;;29.63;18.73;;;15.00;99.90;;;;;;4212890;28;20055;-74
2021/09/05 08:08:00;;;;;;;22.90;16.17;;;15.00;99.90;;;;;;4213371;28;20043;-73
2021/09/05 08:10:01;;;;;;;22.42;15.68;;;15.10;99.90;;;;;;4194920;28;20512;-73
2021/09/05 08:12:02;;;;;;;23.67;15.10;;;15.30;99.90;;;;;;4212752;28;20031;-73
2021/09/05 08:14:02;;;;;;;22.77;15.38;;;15.30;99.90;;;;;;4211769;28;20040;-72
2021/09/05 08:16:03;;;;;;;20.20;13.55;;;15.40;99.90;;;;;;4193923;28;20029;-73
2021/09/05 08:18:04;;;;;;;28.83;14.75;;;15.60;99.90;;;;;;4212607;28;20024;-74
2021/09/05 08:20:05;;;;;;;21.48;12.77;;;15.70;99.90;;;;;;4213634;28;20032;-73
2021/09/05 08:22:06;;;;;;;21.15;13.40;;;15.80;99.90;;;;;;4211442;28;20035;-71
2021/09/05 08:24:06;;;;;;;23.65;13.85;;;15.90;99.90;;;;;;4212208;28;20028;-74
2021/09/05 08:26:12;;;;;;;18.95;12.75;;;16.10;99.90;;;;;;4209698;28;20032;-74
2021/09/05 08:28:13;;;;;;;25.88;14.13;;;16.20;99.90;;;;;;4194829;28;20032;-73
2021/09/05 08:30:13;;;;;;;22.00;14.38;;;16.20;99.90;;;;;;4208570;28;20115;-73
2021/09/05 08:32:14;;;;;;;20.20;13.60;;;16.40;99.90;;;;;;4195265;28;20169;-73
2021/09/05 08:34:15;;;;;;;18.00;12.52;;;16.40;99.90;;;;;;4193210;28;20024;-73
2021/09/05 08:36:16;;;;;;;20.75;12.18;;;16.50;99.90;;;;;;4210707;28;20051;-73
2021/09/05 08:38:16;;;;;;;16.63;12.75;;;16.60;99.90;;;;;;4210233;28;20032;-73
2021/09/05 08:40:22;;;;;;;22.25;12.23;;;16.70;99.90;;;;;;4192816;28;20036;-73
2021/09/05 08:42:23;;;;;;;19.48;11.57;;;16.80;99.90;;;;;;4210178;28;20061;-72
2021/09/05 08:44:25;;;;;;;18.33;11.60;;;16.90;99.90;;;;;;4208379;28;20036;-74
2021/09/05 08:46:26;;;;;;;19.92;12.57;;;17.00;99.90;;;;;;4209700;28;20132;-73
2021/09/05 08:48:26;;;;;;;18.02;11.70;;;17.10;99.90;;;;;;4211146;28;20394;-74
2021/09/05 08:50:28;;;;;;;17.95;11.40;;;17.20;99.90;;;;;;4208196;28;20095;-74
2021/09/05 08:52:29;;;;;;;15.48;10.95;;;17.30;99.90;;;;;;4211838;28;20491;-73
2021/09/05 08:54:30;;;;;;;17.45;12.25;;;17.40;99.90;;;;;;4210902;28;20035;-74
2021/09/05 08:56:30;;;;;;;16.85;10.88;;;17.50;99.90;;;;;;4213523;28;20036;-73
2021/09/05 08:58:31;;;;;;;16.00;10.95;;;17.60;99.90;;;;;;4195278;28;20044;-73
2021/09/05 09:00:33;;;;;;;20.45;14.43;;;17.80;99.90;;;;;;4212722;28;20032;-73
2021/09/05 09:02:48;;;;;;;14.73;10.02;;;17.90;99.90;;;;;;4193996;28;20047;-74
2021/09/05 09:04:53;;;;;;;13.60;10.07;;;18.10;99.90;;;;;;4209695;28;20032;-72
2021/09/05 09:06:54;;;;;;;14.90;11.18;;;18.30;99.90;;;;;;4211536;28;20249;-71
2021/09/05 09:09:02;;;;;;;13.05;10.40;;;18.50;99.90;;;;;;4208752;28;20060;-74
2021/09/05 09:11:03;;;;;;;11.90;9.10;;;18.60;99.90;;;;;;4193040;28;20048;-73
2021/09/05 09:13:03;;;;;;;14.65;9.27;;;18.70;99.90;;;;;;4212932;28;20040;-72
2021/09/05 09:15:28;;;;;;;11.05;9.25;;;18.90;99.90;;;;;;4208041;28;20062;-73
2021/09/05 09:17:38;;;;;;;10.70;9.23;;;19.10;99.90;;;;;;4192961;28;20043;-72
2021/09/05 09:19:43;;;;;;;12.32;9.30;;;19.30;99.90;;;;;;4212786;28;20109;-73
2021/09/05 09:21:44;;;;;;;13.23;9.45;;;19.40;99.90;;;;;;4212506;28;20483;-73
2021/09/05 09:23:45;;;;;;;16.95;9.18;;;19.60;99.90;;;;;;4195285;28;20102;-72
2021/09/05 09:25:58;;;;;;;13.32;9.80;;;19.80;99.90;;;;;;4213232;28;20402;-72
2021/09/05 09:27:58;;;;;;;12.32;9.18;;;20.00;99.90;;;;;;4207110;28;20052;-74
2021/09/05 09:29:59;;;;;;;19.90;13.80;;;20.20;99.90;;;;;;4211135;28;20123;-72
2021/09/05 09:32:05;;;;;;;13.13;9.18;;;20.40;99.90;;;;;;4195752;28;20425;-73
2021/09/05 09:34:20;;;;;;;16.48;10.10;;;20.70;99.90;;;;;;4211405;28;20047;-73
2021/09/05 09:36:26;;;;;;;13.25;9.88;;;20.80;99.90;;;;;;4195103;28;20114;-71
2021/09/05 09:38:28;;;;;;;12.48;10.38;;;21.20;99.90;;;;;;4210536;28;20035;-71
2021/09/05 09:40:29;;;;;;;16.05;10.15;;;21.30;99.90;;;;;;4206259;28;20024;-72
2021/09/05 09:42:39;;;;;;;14.75;10.02;;;21.50;99.90;;;;;;4195914;28;20028;-72
2021/09/05 09:44:54;;;;;;;14.48;9.48;;;21.60;99.90;;;;;;4211097;28;20182;-72
2021/09/05 09:47:07;;;;;;;14.15;10.38;;;21.80;99.90;;;;;;4194867;28;20043;-73
2021/09/05 09:49:10;;;;;;;15.15;10.65;;;21.90;99.90;;;;;;4212290;28;20395;-72
2021/09/05 09:51:12;;;;;;;19.23;11.57;;;22.20;99.90;;;;;;4211385;28;20387;-74
2021/09/05 09:53:13;;;;;;;18.23;10.55;;;22.40;99.90;;;;;;4212054;28;20028;-71
2021/09/05 09:55:13;;;;;;;15.00;9.60;;;22.50;99.90;;;;;;4211091;28;20039;-72
2021/09/05 09:57:14;;;;;;;20.40;10.30;;;22.70;99.90;;;;;;4212942;28;20067;-73
2021/09/05 09:59:14;;;;;;;14.93;10.57;;;22.80;99.90;;;;;;4192126;28;20175;-72
2021/09/05 10:01:20;;;;;;;17.23;10.10;;;23.00;99.90;;;;;;4211890;28;20040;-73
2021/09/05 10:03:24;;;;;;;15.77;10.40;;;23.40;99.90;;;;;;4210140;28;20131;-72
2021/09/05 10:05:25;;;;;;;14.25;11.13;;;23.60;99.90;;;;;;4194256;28;20036;-73
2021/09/05 10:07:29;;;;;;;19.63;10.32;;;23.80;99.90;;;;;;4210423;28;20028;-72
2021/09/05 10:09:30;;;;;;;12.30;9.93;;;23.70;99.90;;;;;;4193763;28;20037;-73
2021/09/05 10:11:32;;;;;;;13.48;9.95;;;23.80;99.90;;;;;;4209488;28;20035;-72
2021/09/05 10:13:36;;;;;;;13.13;9.80;;;24.00;99.90;;;;;;4193653;28;20032;-73
2021/09/05 10:15:37;;;;;;;13.25;9.82;;;24.20;99.90;;;;;;4207326;28;20124;-72
2021/09/05 10:17:38;;;;;;;12.65;8.95;;;24.50;99.90;;;;;;4209352;28;20061;-72